createdAt,value
2018-04-19T00:02:12.021Z,4.23
2018-04-19T00:04:39.585Z,7.87
2018-04-19T00:07:07.249Z,7.87
2018-04-19T00:09:34.877Z,4.43
2018-04-19T00:12:03.297Z,7.80
2018-04-19T00:14:30.856Z,5.87
2018-04-19T00:16:58.482Z,4.77
2018-04-19T00:19:26.902Z,4.60
2018-04-19T00:21:54.405Z,5.30
2018-04-19T00:24:21.969Z,6.20
2018-04-19T00:26:50.395Z,3.97
2018-04-19T00:29:17.965Z,4.67
2018-04-19T00:31:45.556Z,6.20
2018-04-19T00:34:13.256Z,6.23
2018-04-19T00:36:40.792Z,6.30
2018-04-19T00:39:08.455Z,5.70
2018-04-19T00:41:36.068Z,11.43
2018-04-19T00:44:03.658Z,8.10
2018-04-19T00:46:31.209Z,7.13
2018-04-19T00:48:58.748Z,5.13
2018-04-19T00:51:26.346Z,8.20
2018-04-19T00:53:54.685Z,5.10
2018-04-19T00:56:22.194Z,4.30
2018-04-19T00:58:50.560Z,8.00
2018-04-19T01:01:18.940Z,5.10
2018-04-19T01:03:46.555Z,6.50
2018-04-19T01:06:14.133Z,5.27
2018-04-19T01:08:41.725Z,7.17
2018-04-19T01:11:10.049Z,8.70
2018-04-19T01:13:37.669Z,7.47
2018-04-19T01:16:06.796Z,5.67
2018-04-19T01:18:34.363Z,6.33
2018-04-19T01:21:02.026Z,7.07
2018-04-19T01:23:29.693Z,5.63
2018-04-19T01:25:57.358Z,5.10
2018-04-19T01:28:25.010Z,7.80
2018-04-19T01:30:52.662Z,7.17
2018-04-19T01:33:20.157Z,5.10
2018-04-19T01:35:59.524Z,6.27
2018-04-19T01:38:27.108Z,5.63
2018-04-19T01:40:55.413Z,10.13
2018-04-19T01:43:22.964Z,7.20
2018-04-19T01:45:50.540Z,9.00
2018-04-19T01:48:18.098Z,5.00
2018-04-19T01:50:45.745Z,6.70
2018-04-19T01:53:13.268Z,6.10
2018-04-19T01:55:40.957Z,7.13
2018-04-19T01:58:08.518Z,6.13
2018-04-19T02:00:36.044Z,6.70
2018-04-19T02:03:03.606Z,6.17
2018-04-19T02:05:32.026Z,5.50
2018-04-19T02:07:59.505Z,6.70
2018-04-19T02:10:26.996Z,6.70
2018-04-19T02:12:54.655Z,7.03
2018-04-19T02:15:22.219Z,5.73
2018-04-19T02:17:50.611Z,4.97
2018-04-19T02:20:18.645Z,5.80
2018-04-19T02:22:46.992Z,5.97
2018-04-19T02:25:14.552Z,5.00
2018-04-19T02:27:42.091Z,7.57
2018-04-19T02:30:09.681Z,5.33
2018-04-19T02:32:37.237Z,6.13
2018-04-19T02:35:04.852Z,10.63
2018-04-19T02:37:33.224Z,10.23
2018-04-19T02:40:00.778Z,7.73
2018-04-19T02:42:29.895Z,13.03
2018-04-19T02:44:58.418Z,6.03
2018-04-19T02:47:26.017Z,7.57
2018-04-19T02:49:53.564Z,6.00
2018-04-19T02:52:21.159Z,8.20
2018-04-19T02:54:48.848Z,7.70
2018-04-19T02:57:16.363Z,6.30
2018-04-19T02:59:43.905Z,7.70
2018-04-19T03:02:11.491Z,11.43
2018-04-19T03:04:39.334Z,7.17
2018-04-19T03:07:07.037Z,7.67
2018-04-19T03:09:35.358Z,7.93
2018-04-19T03:12:02.997Z,9.20
2018-04-19T03:14:30.605Z,9.50
2018-04-19T03:16:58.185Z,9.33
2018-04-19T03:19:25.847Z,7.50
2018-04-19T03:21:53.417Z,9.27
2018-04-19T03:24:21.097Z,7.23
2018-04-19T03:26:48.744Z,6.80
2018-04-19T03:29:16.522Z,8.90
2018-04-19T03:31:44.140Z,7.60
2018-04-19T03:34:11.677Z,13.10
2018-04-19T03:36:39.250Z,10.60
2018-04-19T03:39:06.966Z,7.30
2018-04-19T03:41:34.591Z,6.97
2018-04-19T03:44:02.320Z,8.33
2018-04-19T03:46:29.942Z,8.20
2018-04-19T03:48:57.613Z,9.30
2018-04-19T03:51:25.220Z,7.57
2018-04-19T03:53:52.945Z,9.30
2018-04-19T03:56:21.283Z,8.33
2018-04-19T03:58:49.664Z,8.33
2018-04-19T04:01:17.372Z,7.17
2018-04-19T04:03:45.082Z,6.97
2018-04-19T04:06:12.679Z,7.03
2018-04-19T04:08:41.003Z,14.27
2018-04-19T04:11:08.694Z,9.70
2018-04-19T04:13:36.329Z,7.20
2018-04-19T04:16:05.479Z,8.37
2018-04-19T04:18:45.754Z,7.97
2018-04-19T04:21:19.086Z,10.93
2018-04-19T04:23:53.563Z,8.20
2018-04-19T04:26:22.043Z,8.40
2018-04-19T04:28:49.657Z,11.67
2018-04-19T04:31:18.281Z,12.27
2018-04-19T04:33:45.990Z,9.45
2018-04-19T04:38:47.569Z,9.23
2018-04-19T04:41:15.132Z,15.93
2018-04-19T04:43:42.762Z,9.00
2018-04-19T04:46:10.506Z,8.97
2018-04-19T04:48:38.296Z,8.77
2018-04-19T04:51:05.981Z,12.30
2018-04-19T04:53:33.663Z,11.93
2018-04-19T04:56:02.034Z,11.50
2018-04-19T04:58:29.631Z,10.67
2018-04-19T05:00:57.288Z,9.57
2018-04-19T05:03:25.714Z,10.43
2018-04-19T05:05:53.433Z,8.93
2018-04-19T05:08:21.194Z,8.43
2018-04-19T05:10:48.862Z,9.70
2018-04-19T05:13:17.283Z,10.00
2018-04-19T05:15:44.975Z,9.53
2018-04-19T05:18:12.649Z,10.60
2018-04-19T05:20:40.225Z,13.63
2018-04-19T05:23:08.504Z,10.77
2018-04-19T05:25:36.214Z,11.33
2018-04-19T05:28:03.774Z,10.17
2018-04-19T05:30:32.164Z,9.00
2018-04-19T05:32:59.752Z,10.57
2018-04-19T05:35:28.309Z,9.00
2018-04-19T05:37:55.986Z,8.73
2018-04-19T05:40:24.884Z,8.77
2018-04-19T05:42:53.267Z,9.97
2018-04-19T05:45:21.677Z,8.60
2018-04-19T05:47:49.295Z,12.27
2018-04-19T05:50:16.929Z,9.37
2018-04-19T05:52:44.583Z,8.80
2018-04-19T05:55:12.199Z,10.17
2018-04-19T05:57:39.767Z,9.53
2018-04-19T06:00:08.135Z,7.40
2018-04-19T06:02:36.460Z,8.90
2018-04-19T06:05:04.036Z,10.53
2018-04-19T06:07:31.672Z,8.50
2018-04-19T06:09:59.318Z,9.87
2018-04-19T06:12:26.892Z,9.87
2018-04-19T06:14:54.438Z,10.97
2018-04-19T06:17:22.117Z,10.70
2018-04-19T06:19:49.692Z,9.00
2018-04-19T06:22:17.305Z,8.77
2018-04-19T06:24:44.948Z,8.90
2018-04-19T06:27:13.280Z,10.30
2018-04-19T06:29:40.973Z,9.17
2018-04-19T06:32:09.303Z,9.40
2018-04-19T06:34:36.842Z,11.67
2018-04-19T06:37:04.497Z,13.20
2018-04-19T06:39:32.098Z,14.63
2018-04-19T06:41:59.665Z,13.03
2018-04-19T06:44:27.228Z,11.97
2018-04-19T06:46:54.869Z,8.20
2018-04-19T06:49:23.967Z,11.87
2018-04-19T06:51:51.617Z,11.80
2018-04-19T06:54:19.211Z,14.60
2018-04-19T06:56:46.823Z,7.90
2018-04-19T06:59:15.152Z,10.87
2018-04-19T07:01:42.672Z,8.53
2018-04-19T07:04:10.924Z,8.87
2018-04-19T07:06:38.451Z,9.60
2018-04-19T07:09:05.948Z,10.77
2018-04-19T07:11:34.217Z,9.13
2018-04-19T07:14:01.737Z,13.00
2018-04-19T07:16:29.244Z,11.17
2018-04-19T07:18:57.520Z,8.93
2018-04-19T07:21:25.024Z,11.03
2018-04-19T07:23:52.536Z,10.00
2018-04-19T07:26:20.816Z,11.17
2018-04-19T07:28:49.093Z,9.10
2018-04-19T07:31:17.386Z,11.43
2018-04-19T07:33:44.905Z,13.13
2018-04-19T07:36:12.400Z,11.63
2018-04-19T07:38:39.959Z,10.03
2018-04-19T07:41:08.244Z,11.40
2018-04-19T07:43:36.612Z,11.93
2018-04-19T07:46:04.133Z,9.70
2018-04-19T07:48:31.618Z,10.60
2018-04-19T07:50:59.144Z,9.30
2018-04-19T07:53:26.647Z,10.93
2018-04-19T07:55:54.153Z,9.03
2018-04-19T07:58:21.656Z,8.70
2018-04-19T08:00:49.928Z,10.23
2018-04-19T08:03:18.208Z,9.33
2018-04-19T08:05:45.712Z,10.33
2018-04-19T08:08:13.237Z,10.73
2018-04-19T08:10:40.767Z,10.33
2018-04-19T08:13:08.252Z,9.27
2018-04-19T08:15:35.743Z,7.77
2018-04-19T08:18:03.221Z,6.63
2018-04-19T08:20:30.708Z,7.87
2018-04-19T08:22:58.949Z,7.50
2018-04-19T08:25:26.424Z,7.67
2018-04-19T08:27:54.005Z,7.80
2018-04-19T08:30:22.281Z,7.50
2018-04-19T08:32:50.533Z,6.77
2018-04-19T08:35:18.152Z,8.37
2018-04-19T08:37:45.691Z,8.40
2018-04-19T08:40:14.065Z,10.10
2018-04-19T08:42:42.368Z,8.03
2018-04-19T08:45:09.904Z,10.70
2018-04-19T08:47:38.276Z,12.30
2018-04-19T08:50:06.792Z,6.97
2018-04-19T08:52:34.317Z,7.30
2018-04-19T08:55:02.628Z,7.30
2018-04-19T08:57:30.217Z,7.37
2018-04-19T08:59:57.713Z,6.90
2018-04-19T09:02:26.108Z,6.47
2018-04-19T09:04:54.473Z,8.03
2018-04-19T09:07:22.957Z,10.87
2018-04-19T09:09:52.199Z,8.00
2018-04-19T09:12:19.673Z,8.67
2018-04-19T09:14:47.173Z,6.90
2018-04-19T09:17:15.448Z,7.13
2018-04-19T09:19:42.996Z,8.07
2018-04-19T09:22:10.547Z,11.27
2018-04-19T09:24:38.112Z,7.80
2018-04-19T09:27:05.837Z,8.40
2018-04-19T09:29:33.449Z,12.27
2018-04-19T09:32:01.892Z,7.53
2018-04-19T09:34:29.448Z,6.87
2018-04-19T09:36:56.940Z,7.93
2018-04-19T09:39:25.354Z,8.53
2018-04-19T09:41:52.906Z,8.10
2018-04-19T09:44:20.406Z,8.47
2018-04-19T09:46:47.993Z,7.57
2018-04-19T09:49:15.522Z,7.20
2018-04-19T09:51:43.193Z,7.20
2018-04-19T09:54:10.915Z,8.00
2018-04-19T09:56:39.156Z,8.10
2018-04-19T09:59:11.954Z,6.70
2018-04-19T10:01:45.918Z,7.13
2018-04-19T10:04:14.340Z,6.57
2018-04-19T10:06:41.854Z,6.77
2018-04-19T10:09:09.336Z,10.03
2018-04-19T10:11:36.880Z,6.97
2018-04-19T10:14:04.714Z,6.97
2018-04-19T10:16:32.363Z,8.57
2018-04-19T10:18:59.893Z,6.90
2018-04-19T10:21:27.585Z,7.40
2018-04-19T10:23:55.949Z,7.00
2018-04-19T10:26:23.533Z,7.20
2018-04-19T10:28:51.044Z,6.30
2018-04-19T10:31:18.531Z,6.10
2018-04-19T10:33:47.823Z,7.47
2018-04-19T10:36:16.103Z,7.70
2018-04-19T10:38:44.416Z,7.00
2018-04-19T10:41:12.838Z,7.07
2018-04-19T10:43:40.306Z,6.70
2018-04-19T10:46:07.781Z,6.07
2018-04-19T10:48:36.025Z,5.73
2018-04-19T10:51:03.545Z,7.63
2018-04-19T10:53:31.020Z,6.03
2018-04-19T10:55:58.496Z,6.00
2018-04-19T10:58:26.013Z,7.00
2018-04-19T11:00:53.573Z,7.17
2018-04-19T11:03:21.189Z,5.80
2018-04-19T11:05:49.468Z,7.10
2018-04-19T11:08:16.945Z,6.90
2018-04-19T11:10:45.188Z,5.90
2018-04-19T11:13:12.680Z,6.23
2018-04-19T11:15:40.920Z,6.70
2018-04-19T11:18:08.463Z,6.13
2018-04-19T11:20:36.072Z,5.67
2018-04-19T11:23:03.564Z,6.60
2018-04-19T11:25:31.044Z,6.50
2018-04-19T11:27:58.612Z,7.00
2018-04-19T11:30:26.092Z,6.13
2018-04-19T11:32:54.341Z,6.37
2018-04-19T11:35:22.082Z,5.80
2018-04-19T11:37:49.625Z,5.80
2018-04-19T11:40:17.162Z,8.77
2018-04-19T11:42:45.449Z,5.07
2018-04-19T11:45:12.960Z,6.33
2018-04-19T11:47:40.454Z,6.20
2018-04-19T11:50:08.718Z,6.50
2018-04-19T11:52:36.189Z,5.83
2018-04-19T11:55:04.439Z,5.43
2018-04-19T11:57:31.924Z,5.10
2018-04-19T12:00:00.171Z,5.27
2018-04-19T12:02:27.644Z,5.03
2018-04-19T12:04:55.176Z,5.50
2018-04-19T12:07:22.648Z,5.20
2018-04-19T12:09:50.130Z,7.60
2018-04-19T12:12:18.392Z,6.27
2018-04-19T12:14:45.923Z,4.70
2018-04-19T12:17:13.526Z,7.83
2018-04-19T12:19:41.093Z,4.43
2018-04-19T12:22:08.644Z,3.70
2018-04-19T12:24:36.925Z,5.70
2018-04-19T12:27:04.390Z,4.83
2018-04-19T12:29:32.629Z,5.37
2018-04-19T12:32:00.110Z,5.77
2018-04-19T12:34:28.489Z,5.23
2018-04-19T12:36:56.155Z,4.50
2018-04-19T12:39:24.409Z,5.63
2018-04-19T12:41:51.993Z,8.03
2018-04-19T12:44:19.573Z,4.57
2018-04-19T12:46:47.080Z,5.10
2018-04-19T12:49:14.556Z,4.10
2018-04-19T12:51:42.059Z,4.27
2018-04-19T12:54:09.542Z,5.87
2018-04-19T12:56:37.013Z,6.67
2018-04-19T12:59:04.507Z,8.13
2018-04-19T13:01:32.749Z,5.67
2018-04-19T13:04:00.228Z,5.07
2018-04-19T13:06:28.532Z,8.80
2018-04-19T13:08:55.983Z,3.93
2018-04-19T13:11:23.465Z,5.90
2018-04-19T13:13:50.978Z,3.90
2018-04-19T13:16:19.230Z,3.50
2018-04-19T13:18:46.718Z,3.57
2018-04-19T13:21:14.995Z,4.17
2018-04-19T13:23:43.245Z,4.73
2018-04-19T13:26:10.721Z,5.20
2018-04-19T13:28:38.236Z,4.97
2018-04-19T13:31:05.731Z,4.60
2018-04-19T13:33:33.981Z,4.13
2018-04-19T13:36:01.496Z,5.17
2018-04-19T13:38:28.983Z,4.93
2018-04-19T13:40:56.505Z,4.70
2018-04-19T13:43:24.810Z,4.80
2018-04-19T13:45:52.289Z,3.80
2018-04-19T13:48:19.765Z,5.23
2018-04-19T13:50:47.257Z,3.97
2018-04-19T13:53:15.596Z,3.17
2018-04-19T13:55:43.093Z,3.97
2018-04-19T13:58:11.353Z,3.93
2018-04-19T14:00:38.837Z,3.37
2018-04-19T14:03:06.312Z,2.90
2018-04-19T14:05:33.897Z,3.20
2018-04-19T14:08:02.152Z,3.17
2018-04-19T14:10:29.643Z,3.73
2018-04-19T14:12:57.166Z,3.47
2018-04-19T14:15:24.737Z,2.80
2018-04-19T14:17:52.208Z,2.93
2018-04-19T14:20:19.793Z,3.27
2018-04-19T14:22:47.275Z,5.53
2018-04-19T14:25:15.532Z,3.73
2018-04-19T14:27:43.024Z,4.90
2018-04-19T14:30:10.525Z,4.67
2018-04-19T14:32:38.008Z,4.20
2018-04-19T14:35:05.497Z,2.90
2018-04-19T14:37:32.990Z,5.90
2018-04-19T14:40:00.474Z,3.33
2018-04-19T14:42:27.971Z,5.93
2018-04-19T14:44:55.461Z,3.33
2018-04-19T14:47:22.953Z,2.60
2018-04-19T14:49:50.431Z,3.23
2018-04-19T14:52:18.713Z,3.33
2018-04-19T14:54:46.958Z,2.30
2018-04-19T14:57:14.457Z,2.67
2018-04-19T14:59:42.072Z,2.53
2018-04-19T15:02:09.736Z,4.20
2018-04-19T15:04:38.443Z,3.00
2018-04-19T15:07:06.037Z,2.67
2018-04-19T15:09:33.689Z,2.67
2018-04-19T15:12:02.114Z,4.40
2018-04-19T15:14:29.739Z,2.90
2018-04-19T15:16:57.354Z,2.80
2018-04-19T15:19:24.872Z,2.60
2018-04-19T15:21:52.437Z,4.43
2018-04-19T15:24:20.932Z,2.90
2018-04-19T15:29:22.605Z,3.20
2018-04-19T15:31:50.193Z,3.70
2018-04-19T15:34:18.473Z,4.13
2018-04-19T15:36:46.174Z,2.83
2018-04-19T15:39:13.864Z,2.83
2018-04-19T15:41:41.476Z,2.20
2018-04-19T15:44:09.947Z,4.63
2018-04-19T15:46:38.220Z,2.80
2018-04-19T15:49:07.501Z,3.20
2018-04-19T15:51:34.987Z,2.50
2018-04-19T15:54:03.240Z,10.53
2018-04-19T15:56:30.807Z,3.10
2018-04-19T15:59:01.245Z,4.30
2018-04-19T16:01:28.764Z,2.90
2018-04-19T16:03:56.653Z,9.50
2018-04-19T16:06:24.181Z,3.83
2018-04-19T16:08:51.906Z,2.80
2018-04-19T16:11:19.550Z,3.23
2018-04-19T16:13:46.988Z,3.00
2018-04-19T16:16:14.510Z,3.47
2018-04-19T16:18:42.176Z,4.10
2018-04-19T16:21:10.857Z,3.33
2018-04-19T16:23:38.697Z,3.03
2018-04-19T16:26:07.527Z,4.30
2018-04-19T16:28:35.173Z,3.20
2018-04-19T16:31:02.780Z,2.80
2018-04-19T16:33:30.495Z,3.57
2018-04-19T16:35:57.981Z,3.43
2018-04-19T16:38:25.512Z,4.70
2018-04-19T16:40:53.114Z,3.33
2018-04-19T16:43:20.597Z,3.23
2018-04-19T16:45:48.217Z,4.07
2018-04-19T16:48:15.790Z,3.13
2018-04-19T16:50:43.454Z,5.53
2018-04-19T16:53:11.921Z,3.00
2018-04-19T16:55:39.515Z,7.67
2018-04-19T16:58:07.083Z,4.27
2018-04-19T17:00:34.609Z,3.63
2018-04-19T17:03:02.198Z,2.90
2018-04-19T17:05:31.703Z,4.83
2018-04-19T17:07:59.517Z,4.80
2018-04-19T17:10:27.033Z,4.20
2018-04-19T17:12:55.431Z,5.23
2018-04-19T17:15:23.950Z,4.47
2018-04-19T17:17:51.666Z,5.20
2018-04-19T17:20:20.141Z,3.83
2018-04-19T17:22:48.594Z,5.37
2018-04-19T17:25:16.314Z,5.93
2018-04-19T17:27:44.383Z,6.57
2018-04-19T17:30:11.984Z,3.83
2018-04-19T17:32:49.078Z,6.63
2018-04-19T17:35:16.819Z,6.53
2018-04-19T17:37:45.638Z,4.40
2018-04-19T17:40:14.451Z,3.40
2018-04-19T17:42:42.795Z,6.80
2018-04-19T17:45:10.516Z,5.57
2018-04-19T17:47:38.568Z,4.63
2018-04-19T17:50:06.768Z,5.23
2018-04-19T17:52:34.401Z,4.00
2018-04-19T17:55:02.022Z,7.20
2018-04-19T17:57:29.679Z,4.83
2018-04-19T17:59:57.620Z,4.17
2018-04-19T18:02:25.355Z,3.73
2018-04-19T18:04:53.726Z,5.47
2018-04-19T18:07:22.211Z,6.47
2018-04-19T18:09:51.079Z,4.30
2018-04-19T18:12:20.209Z,6.80
2018-04-19T18:14:54.676Z,5.60
2018-04-19T18:17:23.287Z,4.17
2018-04-19T18:19:51.439Z,3.97
2018-04-19T18:22:19.052Z,8.50
2018-04-19T18:24:46.824Z,5.03
2018-04-19T18:27:15.276Z,4.10
2018-04-19T18:29:42.943Z,4.07
2018-04-19T18:32:10.639Z,4.80
2018-04-19T18:34:38.344Z,5.00
2018-04-19T18:37:06.827Z,3.60
2018-04-19T18:39:34.625Z,5.60
2018-04-19T18:42:03.050Z,5.20
2018-04-19T18:44:30.541Z,5.50
2018-04-19T18:46:58.173Z,4.27
2018-04-19T18:49:25.733Z,4.47
2018-04-19T18:51:53.399Z,5.63
2018-04-19T18:54:21.142Z,4.00
2018-04-19T18:56:48.913Z,3.70
2018-04-19T18:59:39.432Z,8.40
2018-04-19T19:02:08.032Z,4.37
2018-04-19T19:04:42.198Z,6.70
2018-04-19T19:07:18.363Z,5.00
2018-04-19T19:09:50.581Z,7.13
2018-04-19T19:12:32.554Z,6.43
2018-04-19T19:15:02.542Z,3.70
2018-04-19T19:20:26.658Z,5.73
2018-04-19T19:23:07.311Z,8.40
2018-04-19T19:25:47.168Z,6.40
2018-04-19T19:28:33.069Z,3.83
2018-04-19T19:31:03.171Z,12.03
2018-04-19T19:33:32.728Z,5.33
2018-04-19T19:38:44.115Z,6.40
2018-04-19T19:41:19.614Z,4.80
2018-04-19T19:43:47.387Z,6.07
2018-04-19T19:46:15.051Z,5.90
2018-04-19T19:48:43.100Z,11.90
2018-04-19T19:51:11.651Z,13.63
2018-04-19T19:53:39.369Z,9.57
2018-04-19T19:56:06.966Z,5.77
2018-04-19T19:58:34.513Z,6.50
2018-04-19T20:01:02.350Z,6.27
2018-04-19T20:03:30.338Z,11.77
2018-04-19T20:05:58.115Z,10.13
2018-04-19T20:08:31.084Z,7.90
2018-04-19T20:11:01.707Z,6.10
2018-04-19T20:13:30.286Z,9.47
2018-04-19T20:15:58.023Z,10.83
2018-04-19T20:18:31.832Z,7.70
2018-04-19T20:21:02.445Z,7.00
2018-04-19T20:23:32.116Z,7.83
2018-04-19T20:26:01.053Z,10.20
2018-04-19T20:28:29.561Z,7.70
2018-04-19T20:30:59.342Z,10.87
2018-04-19T20:33:27.699Z,11.33
2018-04-19T20:38:33.259Z,9.40
2018-04-19T20:41:04.502Z,9.90
2018-04-19T20:43:32.465Z,9.50
2018-04-19T20:46:00.216Z,12.70
2018-04-19T20:48:37.757Z,18.50
2018-04-19T20:51:08.252Z,11.90
2018-04-19T20:53:35.796Z,7.17
2018-04-19T20:56:06.814Z,11.87
2018-04-19T20:58:35.507Z,8.13
2018-04-19T21:03:40.596Z,6.43
2018-04-19T21:06:08.317Z,14.47
2018-04-19T21:08:37.806Z,6.63
2018-04-19T21:11:05.526Z,7.13
2018-04-19T21:13:35.455Z,6.60
2018-04-19T21:16:04.184Z,7.00
2018-04-19T21:18:35.298Z,9.40
2018-04-19T21:21:09.530Z,12.30
2018-04-19T21:23:39.923Z,13.40
2018-04-19T21:26:08.056Z,11.73
2018-04-19T21:28:39.619Z,7.70
2018-04-19T21:31:11.549Z,7.60
2018-04-19T21:33:44.918Z,7.53
2018-04-19T21:36:15.794Z,9.87
2018-04-19T21:38:46.559Z,6.70
2018-04-19T21:41:15.421Z,7.00
2018-04-19T21:43:46.144Z,7.20
2018-04-19T21:46:14.000Z,10.20
2018-04-19T21:48:41.798Z,8.37
2018-04-19T21:51:12.404Z,6.90
2018-04-19T21:53:44.300Z,10.20
2018-04-19T21:56:12.371Z,14.77
2018-04-19T21:58:42.701Z,9.57
2018-04-19T22:01:11.371Z,7.33
2018-04-19T22:03:42.196Z,6.87
2018-04-19T22:06:16.541Z,6.33
2018-04-19T22:08:47.095Z,6.67
2018-04-19T22:11:17.599Z,7.90
2018-04-19T22:13:48.138Z,10.20
2018-04-19T22:16:17.900Z,6.33
2018-04-19T22:18:49.505Z,9.33
2018-04-19T22:21:20.630Z,8.83
2018-04-19T22:23:50.792Z,6.73
2018-04-19T22:26:22.098Z,7.07
2018-04-19T22:28:51.433Z,7.27
2018-04-19T22:31:20.860Z,7.93
2018-04-19T22:33:49.850Z,9.00
2018-04-19T22:36:20.618Z,8.33
2018-04-19T22:38:52.073Z,8.00
2018-04-19T22:41:23.275Z,8.43
2018-04-19T22:43:51.280Z,6.40
2018-04-19T22:46:19.101Z,8.63
2018-04-19T22:48:48.063Z,5.97
2018-04-19T22:51:21.343Z,5.30
2018-04-19T22:53:53.651Z,5.50
2018-04-19T22:56:25.011Z,5.20
2018-04-19T22:58:55.854Z,6.93
2018-04-19T23:01:27.754Z,6.13
2018-04-19T23:03:57.999Z,6.90
2018-04-19T23:06:26.980Z,6.30
2018-04-19T23:08:56.448Z,5.77
2018-04-19T23:11:24.145Z,9.13
2018-04-19T23:13:53.066Z,6.23
2018-04-19T23:16:23.930Z,8.23
2018-04-19T23:18:51.804Z,5.80
2018-04-19T23:21:21.938Z,5.70
2018-04-19T23:23:49.849Z,6.47
2018-04-19T23:26:20.314Z,6.67
2018-04-19T23:28:47.980Z,7.70
2018-04-19T23:31:16.854Z,7.07
2018-04-19T23:33:45.829Z,5.30
2018-04-19T23:36:14.354Z,6.73
2018-04-19T23:38:42.032Z,6.03
2018-04-19T23:41:10.492Z,10.10
2018-04-19T23:43:38.885Z,6.97
2018-04-19T23:46:07.339Z,7.00
2018-04-19T23:48:35.049Z,9.20
2018-04-19T23:51:03.728Z,5.40
2018-04-19T23:53:32.940Z,5.40
2018-04-19T23:56:00.585Z,8.40
2018-04-19T23:58:28.976Z,5.40
